createdAt,value
2023-03-01T00:03:21.137Z,11.40
2023-03-01T00:13:22.471Z,12.20
2023-03-01T00:23:23.816Z,11.80
2023-03-01T00:33:25.340Z,10.70
2023-03-01T00:43:26.585Z,11.10
2023-03-01T00:53:27.832Z,11.95
2023-03-01T01:03:29.100Z,10.75
2023-03-01T01:13:30.397Z,11.27
2023-03-01T01:23:31.702Z,11.48
2023-03-01T01:33:33.115Z,11.55
2023-03-01T01:43:34.338Z,12.23
2023-03-01T01:53:35.571Z,11.55
2023-03-01T02:03:38.490Z,11.15
2023-03-01T02:13:39.976Z,11.97
2023-03-01T02:23:41.310Z,12.90
2023-03-01T02:33:43.255Z,12.00
2023-03-01T02:43:44.512Z,13.13
2023-03-01T02:53:45.862Z,12.60
2023-03-01T03:03:47.152Z,12.32
2023-03-01T03:13:49.148Z,12.15
2023-03-01T03:23:50.538Z,12.75
2023-03-01T03:33:51.951Z,13.18
2023-03-01T03:43:53.299Z,12.73
2023-03-01T03:53:54.553Z,13.50
2023-03-01T04:03:55.798Z,13.52
2023-03-01T04:13:57.096Z,14.93
2023-03-01T04:23:58.382Z,13.63
2023-03-01T04:33:59.950Z,14.30
2023-03-01T04:44:01.272Z,15.02
2023-03-01T04:54:02.522Z,15.50
2023-03-01T05:04:04.146Z,16.50
2023-03-01T05:14:05.521Z,14.65
2023-03-01T05:24:11.450Z,15.45
2023-03-01T05:34:13.991Z,14.73
2023-03-01T05:44:15.236Z,23.52
2023-03-01T05:54:16.916Z,16.38
2023-03-01T06:04:18.292Z,18.13
2023-03-01T06:14:19.561Z,17.95
2023-03-01T06:24:20.808Z,20.83
2023-03-01T06:34:22.996Z,19.92
2023-03-01T06:44:24.240Z,23.23
2023-03-01T06:54:25.518Z,19.98
2023-03-01T07:04:29.526Z,19.48
2023-03-01T07:14:30.767Z,18.42
2023-03-01T07:24:32.072Z,19.67
2023-03-01T07:34:33.522Z,17.65
2023-03-01T07:44:35.550Z,18.77
2023-03-01T07:54:36.808Z,18.13
2023-03-01T08:04:38.059Z,19.42
2023-03-01T08:14:39.390Z,20.25
2023-03-01T08:24:40.608Z,19.13
2023-03-01T08:34:42.571Z,18.98
2023-03-01T08:44:45.966Z,17.63
2023-03-01T08:54:47.912Z,17.65
2023-03-01T09:04:49.136Z,17.60
2023-03-01T09:14:50.384Z,17.30
2023-03-01T09:24:51.618Z,18.02
2023-03-01T09:35:05.620Z,18.13
2023-03-01T09:45:07.012Z,16.73
2023-03-01T09:55:08.280Z,17.10
2023-03-01T10:05:09.572Z,17.58
2023-03-01T10:15:12.942Z,18.33
2023-03-01T10:25:14.226Z,17.27
2023-03-01T10:35:15.538Z,19.27
2023-03-01T10:45:16.888Z,18.60
2023-03-01T10:55:18.145Z,18.95
2023-03-01T11:05:20.496Z,18.63
2023-03-01T11:15:21.887Z,17.65
2023-03-01T11:25:23.170Z,18.80
2023-03-01T11:35:24.670Z,18.15
2023-03-01T11:45:25.972Z,17.98
2023-03-01T11:55:27.318Z,19.25
2023-03-01T12:05:28.577Z,17.67
2023-03-01T12:15:29.843Z,19.38
2023-03-01T12:25:32.150Z,17.35
2023-03-01T12:35:33.469Z,17.83
2023-03-01T12:45:34.765Z,16.88
2023-03-01T12:55:36.134Z,16.63
2023-03-01T13:05:37.673Z,16.60
2023-03-01T13:15:40.405Z,15.98
2023-03-01T13:25:43.073Z,16.13
2023-03-01T13:35:44.610Z,14.77
2023-03-01T13:45:45.902Z,15.48
2023-03-01T13:55:47.184Z,14.93
2023-03-01T14:05:48.407Z,14.32
2023-03-01T14:15:52.615Z,17.27
2023-03-01T14:25:53.834Z,17.13
2023-03-01T14:35:58.845Z,16.53
2023-03-01T14:46:00.214Z,16.08
2023-03-01T14:56:03.237Z,15.93
2023-03-01T15:06:04.484Z,15.27
2023-03-01T15:16:05.784Z,14.27
2023-03-01T15:26:07.080Z,14.80
2023-03-01T15:36:08.557Z,15.02
2023-03-01T15:46:09.805Z,15.13
2023-03-01T15:56:11.131Z,14.90
2023-03-01T16:06:12.478Z,15.10
2023-03-01T16:16:15.822Z,15.55
2023-03-01T16:26:18.477Z,14.43
2023-03-01T16:36:21.182Z,16.40
2023-03-01T16:46:22.588Z,14.75
2023-03-01T16:56:23.881Z,14.75
2023-03-01T17:06:27.530Z,14.73
2023-03-01T17:16:29.013Z,15.82
2023-03-01T17:26:30.554Z,16.38
2023-03-01T17:36:34.627Z,17.90
2023-03-01T17:46:35.906Z,15.23
2023-03-01T17:56:38.728Z,15.95
2023-03-01T18:06:40.852Z,16.25
2023-03-01T18:16:42.101Z,18.73
2023-03-01T18:26:43.307Z,14.80
2023-03-01T18:37:00.523Z,17.45
2023-03-01T18:47:05.990Z,18.27
2023-03-01T18:57:07.349Z,19.17
2023-03-01T19:07:08.881Z,20.88
2023-03-01T19:17:10.096Z,28.48
2023-03-01T19:27:11.306Z,19.85
2023-03-01T19:37:12.636Z,15.65
2023-03-01T19:47:13.914Z,17.27
2023-03-01T19:57:15.168Z,16.85
2023-03-01T20:07:16.414Z,15.57
2023-03-01T20:17:17.709Z,16.13
2023-03-01T20:27:18.938Z,14.35
2023-03-01T20:37:22.424Z,15.15
2023-03-01T20:47:23.813Z,14.60
2023-03-01T20:57:25.016Z,15.50
2023-03-01T21:07:26.269Z,16.00
2023-03-01T21:17:27.555Z,16.70
2023-03-01T21:27:28.813Z,16.05
2023-03-01T21:37:30.240Z,16.90
2023-03-01T21:47:31.529Z,17.02
2023-03-01T21:57:32.757Z,16.67
2023-03-01T22:07:33.983Z,16.23
2023-03-01T22:17:35.196Z,16.70
2023-03-01T22:27:37.495Z,16.65
2023-03-01T22:37:38.881Z,16.27
2023-03-01T22:47:40.220Z,16.45
2023-03-01T22:57:41.462Z,16.30
2023-03-01T23:07:42.738Z,19.42
2023-03-01T23:17:43.946Z,18.98
2023-03-01T23:27:45.229Z,19.83
2023-03-01T23:37:46.839Z,19.45
2023-03-01T23:47:48.090Z,15.25
2023-03-01T23:57:50.002Z,16.33
